Garden Point, Australia
Current Conditions -  °F | °C
As of 9:00 PM on Sunday 23 Nov 2014 (Local Time) from YPDN Reporting Station
Few Clouds Few Clouds  
Wind Chill: 88°   Ceiling: Unl
Heat Index: 98°   Visibility: 6mi
Dew Point: 75°   Wind: 14mph
Humidity: 66%   Direction: 330°NNW
Pressure: 29.8"   Gusts: NA
Location:  11.4°S, 130.43°E
Report Text: YPDN 231200Z 33012KT 9999 FEW021 31/24 Q1009 NOSIG
Loading
Personal Weather Stations






























Interactive Weather Map New forecast layout! Learn more

10-Day Weather Forecast

Advertisements
Track Severe Weather on mobile